Hovedside
METAR-TAF:

METAR-TAF

Lufthavner :

Borlänge, Sverige

Dala lufthavn

breddegrad: 60-26N, lengdegrad: 015-31E, høyde over havet: 145 m

Gjeldene værobservasjon

Denne rapporten ble laget for 34 minutter siden, klokken 18:20 UTC
Vind 4 kt fra Øst-nordøst
Temperatur 10°C
Luftfuktighet 100%
Trykk 1026 hPa
Sikt 10 km eller mer

METAR: ESSD 221820Z AUTO 06004KT 9999 OVC007/// 10/10 Q1026

Tid: 20:54 (18:54 UTC)

Varsel

Denne rapporten ble laget for 4 timer og 24 minutter siden, klokken 14:30 UTC
Varsel gyldig fra 22. klokken 15 UTC til 22. klokken 17 UTC
Vind 6 kt fra Nordøst
Sikt 10 km eller mer
Brutte skyer i en høyde av 2000 ft
Midlertidig
fra 22. klokken 15 UTC til 22. klokken 17 UTC
Brutte skyer i en høyde av 800 ft

TAF: ESSD 221430Z 2215/2217 04006KT 9999 BKN020 TEMPO 2215/2217 BKN008

Værobservasjoner og værvarsel for over 4000 flyplasser (METAR- og TAF-rapporter).

Tilgjengelige stasjoner er representert av de røde og gule prikkene på kartet.

Hold musepekeren over prikken for å se navnet på stasjonen.

Klikk så for å se værobservasjoner og -varsler.

For å forandre kartet kan du klikke på den grønne knappen med svart kryss for å zoome inn, på den grønne knappen med strek for å zoome ut, eller på de grønne pilene for å se tilstøtende kart.


METAR-TAF: